Time;durP1;ratioP1;P1;durP2;ratioP2;P2;SDS_P1;SDS_P2;PMS_P1;PMS_P2;Temp;Humidity;BMP_temperature;BMP_pressure;BME280_temperature;BME280_humidity;BME280_pressure;Samples;Min_cycle;Max_cycle;Signal;HPM_P1;HPM_P2
2021/05/22 00:00:16;;;;;;;16.87;8.10;;;;;;;12.06;70.77;100635.96;126304;1099;104124;-79
2021/05/22 00:03:06;;;;;;;20.17;7.33;;;;;;;12.04;70.83;100637.63;126281;1099;104193;-80
2021/05/22 00:05:35;;;;;;;19.10;7.80;;;;;;;12.08;70.83;100633.38;126279;1098;104165;-80
2021/05/22 00:08:05;;;;;;;18.30;7.93;;;;;;;12.09;70.85;100643.03;126303;1097;105416;-80
2021/05/22 00:10:34;;;;;;;19.07;8.60;;;;;;;12.05;70.68;100635.05;126299;1099;104130;-80
2021/05/22 00:13:04;;;;;;;20.87;10.40;;;;;;;12.01;70.98;100633.19;126241;1099;104335;-80
2021/05/22 00:15:33;;;;;;;20.40;10.43;;;;;;;12.01;71.11;100632.27;126299;1099;104156;-80
2021/05/22 00:18:03;;;;;;;16.23;7.77;;;;;;;11.98;71.12;100633.09;126268;1099;104182;-80
2021/05/22 00:20:32;;;;;;;20.40;8.77;;;;;;;11.97;71.11;100628.66;126289;1099;104223;-79
2021/05/22 00:23:01;;;;;;;21.00;8.00;;;;;;;11.96;70.84;100636.50;126317;1099;104288;-79
2021/05/22 00:25:31;;;;;;;13.60;7.40;;;;;;;11.90;71.01;100628.38;126254;1099;104139;-79
2021/05/22 00:28:00;;;;;;;14.05;6.75;;;;;;;11.87;71.25;100637.96;125330;1099;104312;-80
2021/05/22 00:30:30;;;;;;;19.03;7.70;;;;;;;11.81;71.22;100637.77;126167;1099;104248;-80
2021/05/22 00:32:59;;;;;;;15.53;7.63;;;;;;;11.78;71.29;100639.38;125440;1097;104149;-79
2021/05/22 00:35:31;;;;;;;20.27;8.50;;;;;;;11.70;71.38;100636.48;126165;1099;104855;-80
2021/05/22 00:38:00;;;;;;;20.23;9.60;;;;;;;11.66;71.44;100639.88;126044;1099;104409;-81
2021/05/22 00:40:30;;;;;;;21.20;9.70;;;;;;;11.64;71.47;100636.28;126155;1099;104198;-79
2021/05/22 00:42:59;;;;;;;19.47;8.90;;;;;;;11.63;71.72;100630.14;125236;1102;104399;-80
2021/05/22 00:45:30;;;;;;;18.40;8.80;;;;;;;11.64;71.65;100625.77;125239;1102;104246;-80
2021/05/22 00:47:59;;;;;;;22.80;9.30;;;;;;;11.55;71.11;100623.75;125256;1102;104274;-80
2021/05/22 00:50:33;;;;;;;17.90;8.57;;;;;;;11.53;71.44;100625.44;125240;1102;104281;-80
2021/05/22 00:53:03;;;;;;;;;;;;;;;11.53;71.77;100622.81;125279;1102;104162;-78
2021/05/22 00:55:32;;;;;;;19.50;8.80;;;;;;;11.50;71.91;100620.08;125177;1101;104258;-79
2021/05/22 00:58:02;;;;;;;18.23;8.93;;;;;;;11.49;71.64;100627.05;125243;1102;104267;-79
2021/05/22 01:00:42;;;;;;;17.67;9.13;;;;;;;11.44;71.63;100626.01;125153;1102;104297;-79
2021/05/22 01:03:17;;;;;;;19.20;9.20;;;;;;;11.42;71.83;100621.53;125225;1101;104300;-79
2021/05/22 01:05:48;;;;;;;23.50;10.23;;;;;;;11.36;71.56;100622.23;125196;1102;104316;-78
2021/05/22 01:08:20;;;;;;;21.60;9.63;;;;;;;11.28;71.81;100631.56;125261;1102;104166;-79
2021/05/22 01:11:00;;;;;;;15.90;8.13;;;;;;;11.26;71.56;100625.38;125220;1102;104156;-79
2021/05/22 01:13:38;;;;;;;19.50;9.00;;;;;;;11.23;71.84;100622.64;125263;1100;104203;-80
2021/05/22 01:16:08;;;;;;;18.63;7.83;;;;;;;11.23;72.11;100626.14;126154;1099;104310;-79
2021/05/22 01:18:42;;;;;;;19.97;8.20;;;;;;;11.23;71.92;100620.89;126161;1099;104291;-79
2021/05/22 01:21:11;;;;;;;;;;;;;;;11.23;72.10;100626.14;126175;1099;110291;-79
2021/05/22 01:23:43;;;;;;;17.77;7.57;;;;;;;11.21;72.05;100629.58;126189;1099;104434;-79
2021/05/22 01:26:14;;;;;;;22.40;8.80;;;;;;;11.20;72.54;100628.66;126199;1099;104303;-79
2021/05/22 01:28:45;;;;;;;17.50;7.90;;;;;;;11.21;72.41;100626.95;125211;1102;104332;-78
2021/05/22 01:31:14;;;;;;;17.30;7.70;;;;;;;11.18;72.28;100625.10;125398;1099;104290;-80
2021/05/22 01:33:44;;;;;;;16.80;7.00;;;;;;;11.19;72.36;100636.49;126189;1098;104520;-79
2021/05/22 01:36:16;;;;;;;15.83;7.47;;;;;;;11.22;72.68;100631.34;126301;1099;104174;-80
2021/05/22 01:38:45;;;;;;;20.50;7.40;;;;;;;11.20;72.51;100635.66;126304;1099;104222;-79
2021/05/22 01:41:14;;;;;;;14.83;7.00;;;;;;;11.19;72.28;100647.00;126221;1099;105666;-79
2021/05/22 01:43:46;;;;;;;18.67;6.93;;;;;;;11.16;72.44;100647.80;126270;1099;104136;-79
2021/05/22 01:46:16;;;;;;;14.63;7.00;;;;;;;11.17;72.55;100656.56;126239;1097;104265;-79
2021/05/22 01:48:46;;;;;;;15.77;7.23;;;;;;;11.19;72.75;100662.76;126304;1099;104162;-79
2021/05/22 01:51:20;;;;;;;16.90;7.60;;;;;;;11.18;72.75;100663.61;126253;1099;104172;-79
2021/05/22 01:54:09;;;;;;;16.17;8.20;;;;;;;11.13;73.06;100664.33;126199;1099;104284;-79
2021/05/22 01:56:39;;;;;;;18.83;7.40;;;;;;;11.05;72.38;100672.80;126262;1099;104149;-79
2021/05/22 01:59:09;;;;;;;18.60;7.80;;;;;;;10.95;72.68;100675.08;125252;1099;104146;-80
2021/05/22 02:01:39;;;;;;;15.63;7.57;;;;;;;10.92;72.72;100674.97;125240;1099;104415;-78
2021/05/22 02:04:08;;;;;;;18.73;7.30;;;;;;;10.92;73.03;100676.67;125242;1099;104248;-80
2021/05/22 02:06:42;;;;;;;12.60;6.43;;;;;;;10.96;73.00;100679.47;125264;1102;104865;-79
2021/05/22 02:09:14;;;;;;;14.47;6.25;;;;;;;11.00;73.08;100683.12;125235;1099;104287;-79
2021/05/22 02:11:48;;;;;;;19.10;7.17;;;;;;;11.01;73.08;100687.52;125217;1102;104174;-79
2021/05/22 02:14:23;;;;;;;18.60;7.13;;;;;;;10.96;72.66;100676.84;125298;1102;104143;-79
2021/05/22 02:16:59;;;;;;;14.07;7.47;;;;;;;10.90;72.33;100675.73;125191;1102;102129;-78
2021/05/22 02:19:31;;;;;;;18.30;7.93;;;;;;;10.82;72.96;100675.45;125204;1102;104181;-80
2021/05/22 02:22:02;;;;;;;20.60;7.97;;;;;;;10.77;72.87;100684.89;125242;1102;104191;-79
2021/05/22 02:24:32;;;;;;;16.13;7.23;;;;;;;10.80;73.31;100685.01;125287;1102;104643;-80
2021/05/22 02:27:04;;;;;;;19.70;7.57;;;;;;;10.83;73.51;100682.50;125289;1102;104184;-80
2021/05/22 02:29:37;;;;;;;15.80;6.40;;;;;;;10.83;72.86;100690.38;125464;1099;104247;-79
2021/05/22 02:32:10;;;;;;;14.87;6.87;;;;;;;10.84;73.12;100696.50;126246;1099;104198;-79
2021/05/22 02:34:46;;;;;;;17.07;7.13;;;;;;;10.88;73.25;100694.05;126283;1099;104309;-79
2021/05/22 02:37:19;;;;;;;18.00;7.23;;;;;;;10.90;73.15;100699.36;126311;1099;104261;-79
2021/05/22 02:39:51;;;;;;;15.00;7.07;;;;;;;10.89;73.32;100701.11;126319;1099;105283;-80
2021/05/22 02:42:22;;;;;;;18.43;7.97;;;;;;;10.87;73.08;100705.38;126269;1097;104316;-80
2021/05/22 02:44:54;;;;;;;15.13;7.50;;;;;;;10.87;73.58;100715.00;126255;1099;104293;-80
2021/05/22 02:47:27;;;;;;;16.97;6.90;;;;;;;10.89;73.19;100713.31;126298;1099;104142;-80
2021/05/22 02:50:02;;;;;;;17.93;7.20;;;;;;;10.91;73.29;100712.55;126338;1099;104201;-80
2021/05/22 02:52:33;;;;;;;17.77;7.30;;;;;;;10.95;73.51;100719.72;126226;1099;104339;-79
2021/05/22 02:55:05;;;;;;;21.97;8.20;;;;;;;10.97;73.27;100715.41;126318;1097;104136;-78
2021/05/22 02:57:35;;;;;;;16.77;7.80;;;;;;;10.94;73.27;100719.66;126295;1098;104615;-79
2021/05/22 03:00:07;;;;;;;16.77;8.57;;;;;;;10.90;73.19;100717.73;126332;1099;104714;-79
2021/05/22 03:02:38;;;;;;;17.73;7.47;;;;;;;10.82;73.20;100730.58;126197;1099;104143;-80
2021/05/22 03:05:13;;;;;;;15.37;7.47;;;;;;;10.74;73.01;100730.28;126242;1099;104201;-79
2021/05/22 03:07:44;;;;;;;18.77;7.87;;;;;;;10.69;72.76;100737.09;126287;1099;104766;-80
2021/05/22 03:10:15;;;;;;;16.60;6.83;;;;;;;10.67;72.79;100732.60;125371;1099;105315;-80
2021/05/22 03:12:44;;;;;;;13.40;6.57;;;;;;;10.71;73.51;100743.28;126071;1099;104322;-79
2021/05/22 03:15:16;;;;;;;13.80;6.33;;;;;;;10.78;73.39;100744.41;125415;1099;104351;-80
2021/05/22 03:17:45;;;;;;;13.83;6.30;;;;;;;10.89;73.89;100745.73;126182;1099;104194;-79
2021/05/22 03:20:15;;;;;;;15.33;7.10;;;;;;;10.92;73.19;100750.19;125403;1099;104178;-79
2021/05/22 03:22:44;;;;;;;15.50;6.93;;;;;;;10.88;73.15;100751.81;125349;1099;104398;-79
2021/05/22 03:25:14;;;;;;;15.80;6.83;;;;;;;10.88;72.99;100745.67;126173;1099;104402;-80
2021/05/22 03:27:43;;;;;;;17.30;7.20;;;;;;;10.94;73.57;100735.41;125333;1099;104137;-79
2021/05/22 03:30:14;;;;;;;15.07;6.33;;;;;;;10.96;73.51;100737.23;125411;1099;105315;-79
2021/05/22 03:32:43;;;;;;;18.60;6.73;;;;;;;10.97;73.27;100738.16;126055;1099;104310;-79
2021/05/22 03:35:15;;;;;;;13.00;6.00;;;;;;;10.96;73.50;100750.36;125387;1098;104249;-80
2021/05/22 03:37:44;;;;;;;12.13;6.20;;;;;;;10.96;73.62;100755.61;126180;1099;104226;-79
2021/05/22 03:40:14;;;;;;;15.13;7.10;;;;;;;10.97;73.42;100752.16;126167;1099;104249;-79
2021/05/22 03:42:44;;;;;;;15.80;6.83;;;;;;;10.98;73.65;100753.05;126240;1098;104181;-80
2021/05/22 03:45:14;;;;;;;13.70;7.03;;;;;;;10.95;73.29;100753.84;126323;1098;104149;-80
2021/05/22 03:47:44;;;;;;;18.57;6.77;;;;;;;10.93;73.73;100746.73;126249;1099;104192;-80
2021/05/22 03:50:14;;;;;;;12.23;6.10;;;;;;;10.92;73.36;100742.31;126292;1099;104201;-79
2021/05/22 03:52:44;;;;;;;13.20;6.83;;;;;;;10.96;73.55;100744.23;126288;1099;104235;-80
2021/05/22 03:55:14;;;;;;;15.00;6.80;;;;;;;11.07;73.56;100739.38;126253;1099;104194;-80
2021/05/22 03:57:43;;;;;;;13.23;7.00;;;;;;;11.20;74.15;100732.84;126252;1099;104660;-79
2021/05/22 04:00:14;;;;;;;15.77;7.37;;;;;;;11.32;74.19;100728.92;126254;1097;104169;-80
2021/05/22 04:02:43;;;;;;;16.73;8.40;;;;;;;11.44;74.07;100727.61;126261;1098;104140;-80
2021/05/22 04:05:13;;;;;;;16.57;7.77;;;;;;;11.54;73.61;100728.81;126309;1099;104146;-80
2021/05/22 04:07:45;;;;;;;20.63;8.17;;;;;;;11.58;73.95;100728.09;126305;1099;104223;-80
2021/05/22 04:10:15;;;;;;;17.60;8.20;;;;;;;11.66;74.09;100734.50;126267;1098;104163;-80
2021/05/22 04:12:44;;;;;;;18.37;7.83;;;;;;;11.72;73.99;100734.72;126180;1099;104162;-80
2021/05/22 04:15:14;;;;;;;16.10;7.37;;;;;;;11.77;73.83;100737.51;126273;1099;104134;-79
2021/05/22 04:17:46;;;;;;;15.67;7.17;;;;;;;11.77;73.66;100737.51;126316;1099;104421;-79
2021/05/22 04:20:16;;;;;;;15.33;6.77;;;;;;;11.79;73.90;100735.81;126212;1099;104165;-79
2021/05/22 04:22:45;;;;;;;15.00;6.80;;;;;;;11.83;73.88;100735.09;126277;1099;105551;-79
2021/05/22 04:25:15;;;;;;;15.83;7.07;;;;;;;11.85;73.73;100739.54;126211;1099;104290;-79
2021/05/22 04:27:47;;;;;;;16.07;7.20;;;;;;;11.87;73.97;100740.51;126257;1098;104149;-79
2021/05/22 04:30:18;;;;;;;18.30;7.40;;;;;;;11.89;73.83;100743.20;126308;1099;104153;-78
2021/05/22 04:32:48;;;;;;;15.47;6.80;;;;;;;11.90;73.98;100744.08;126254;1099;104142;-78
2021/05/22 04:35:17;;;;;;;19.83;7.23;;;;;;;11.90;74.04;100742.33;126262;1099;104150;-78
2021/05/22 04:37:47;;;;;;;18.03;6.90;;;;;;;11.91;73.88;100749.39;126226;1099;104239;-78
2021/05/22 04:40:16;;;;;;;14.87;6.77;;;;;;;11.93;73.95;100749.48;126229;1099;104130;-79
2021/05/22 04:42:48;;;;;;;15.43;6.33;;;;;;;11.98;74.10;100753.14;126221;1098;104134;-79
2021/05/22 04:45:17;;;;;;;22.70;9.30;;;;;;;12.02;74.49;100747.16;126188;1099;108323;-78
2021/05/22 04:47:46;;;;;;;16.20;7.20;;;;;;;12.09;74.03;100742.98;126232;1099;104137;-79
2021/05/22 04:50:16;;;;;;;16.10;6.70;;;;;;;12.16;74.15;100742.36;126220;1099;104146;-80
2021/05/22 04:52:45;;;;;;;15.07;6.37;;;;;;;12.22;74.11;100747.83;126188;1099;104236;-79
2021/05/22 04:55:15;;;;;;;19.60;7.00;;;;;;;12.35;74.28;100751.74;126061;1099;104150;-80
2021/05/22 04:57:44;;;;;;;19.93;7.00;;;;;;;12.45;74.46;100756.47;126115;1099;104210;-80
2021/05/22 05:00:15;;;;;;;19.70;7.57;;;;;;;12.57;74.42;100756.86;126085;1099;104136;-78
2021/05/22 05:02:44;;;;;;;15.73;7.20;;;;;;;12.67;74.38;100760.67;126036;1099;104165;-77
2021/05/22 05:05:15;;;;;;;22.70;8.03;;;;;;;12.79;74.24;100767.16;126097;1098;104192;-77
2021/05/22 05:07:44;;;;;;;21.60;8.00;;;;;;;12.89;74.63;100763.97;126147;1099;104194;-79
2021/05/22 05:10:14;;;;;;;17.70;7.80;;;;;;;12.99;74.21;100751.96;126264;1099;104146;-79
2021/05/22 05:12:43;;;;;;;20.67;7.80;;;;;;;13.12;74.35;100756.76;126239;1099;104207;-79
2021/05/22 05:15:13;;;;;;;16.20;7.83;;;;;;;13.22;74.49;100756.16;126184;1099;104299;-79
2021/05/22 05:17:42;;;;;;;22.70;9.73;;;;;;;13.36;74.47;100759.23;126269;1099;104153;-79
2021/05/22 05:20:13;;;;;;;18.03;8.33;;;;;;;13.46;74.26;100758.66;126288;1099;104162;-78
2021/05/22 05:22:42;;;;;;;22.23;8.97;;;;;;;13.59;74.52;100751.97;126300;1099;104635;-79
2021/05/22 05:25:13;;;;;;;20.00;8.80;;;;;;;13.66;74.73;100767.11;126264;1099;104221;-79
2021/05/22 05:27:42;;;;;;;21.00;9.30;;;;;;;13.75;74.29;100763.81;126191;1098;104252;-78
2021/05/22 05:30:12;;;;;;;25.83;9.50;;;;;;;13.87;74.58;100767.62;126054;1099;104296;-79
2021/05/22 05:32:41;;;;;;;17.63;8.40;;;;;;;13.97;74.83;100775.82;126208;1099;104217;-78
2021/05/22 05:35:14;;;;;;;23.10;8.97;;;;;;;14.10;74.41;100776.14;126255;1098;105498;-79
2021/05/22 05:37:43;;;;;;;17.27;8.07;;;;;;;14.22;73.75;100763.26;126204;1099;104143;-79
2021/05/22 05:40:13;;;;;;;19.90;9.03;;;;;;;14.34;74.37;100767.97;126237;1099;104270;-79
2021/05/22 05:42:42;;;;;;;19.10;8.47;;;;;;;14.45;74.30;100769.11;126262;1099;104169;-77
2021/05/22 05:45:14;;;;;;;21.33;9.43;;;;;;;14.55;73.90;100762.29;126168;1099;104143;-77
2021/05/22 05:47:43;;;;;;;24.07;10.20;;;;;;;14.65;73.81;100759.05;126319;1099;104162;-79
2021/05/22 05:50:13;;;;;;;23.37;9.70;;;;;;;14.71;74.00;100761.84;126160;1099;104366;-79
2021/05/22 05:52:42;;;;;;;19.37;9.13;;;;;;;14.79;73.74;100759.37;125383;1099;104290;-79
2021/05/22 05:55:12;;;;;;;19.80;8.80;;;;;;;14.89;74.49;100763.10;125193;1102;104173;-79
2021/05/22 05:57:42;;;;;;;21.40;9.37;;;;;;;14.99;73.98;100758.91;126185;1099;104284;-79
2021/05/22 06:00:13;;;;;;;18.53;8.83;;;;;;;15.08;74.60;100757.38;126170;1099;104272;-79
2021/05/22 06:02:42;;;;;;;23.37;9.40;;;;;;;15.20;73.70;100762.01;126146;1099;104211;-78
2021/05/22 06:05:11;;;;;;;23.93;9.20;;;;;;;15.30;74.48;100756.91;126012;1099;104140;-79
2021/05/22 06:07:42;;;;;;;26.47;10.17;;;;;;;15.39;74.63;100743.88;126165;1099;104139;-79
2021/05/22 06:10:13;;;;;;;25.03;10.03;;;;;;;15.46;73.57;100751.97;126170;1099;104296;-78
2021/05/22 06:12:43;;;;;;;25.17;9.63;;;;;;;15.54;73.75;100759.17;126218;1099;104133;-79
2021/05/22 06:15:24;;;;;;;20.15;8.60;;;;;;;15.62;73.60;100752.27;126154;1099;104285;-79
2021/05/22 06:17:56;;;;;;;20.83;8.03;;;;;;;15.72;74.16;100751.59;126096;1099;104297;-78
2021/05/22 06:20:26;;;;;;;22.30;8.90;;;;;;;15.82;73.42;100760.62;126169;1099;104208;-77
2021/05/22 06:22:56;;;;;;;22.03;8.57;;;;;;;15.95;73.96;100759.08;125994;1099;104306;-78
2021/05/22 06:25:25;;;;;;;19.87;8.57;;;;;;;16.09;74.01;100754.03;126241;1099;104172;-77
2021/05/22 06:27:54;;;;;;;20.40;8.53;;;;;;;16.21;74.20;100756.00;126165;1099;104243;-78
2021/05/22 06:30:25;;;;;;;21.37;8.47;;;;;;;16.28;74.09;100745.54;126216;1099;104216;-78
2021/05/22 06:32:54;;;;;;;11.83;4.27;;;;;;;16.37;73.22;100750.07;126221;1099;104188;-78
2021/05/22 06:35:23;;;;;;;7.93;3.60;;;;;;;16.48;73.30;100742.30;126251;1099;104162;-79
2021/05/22 06:37:53;;;;;;;9.87;4.20;;;;;;;16.63;73.54;100746.95;126262;1099;104226;-78
2021/05/22 06:40:23;;;;;;;3.60;2.40;;;;;;;16.81;72.90;100739.27;126153;1099;105414;-77
2021/05/22 06:42:53;;;;;;;4.70;2.70;;;;;;;16.98;72.74;100733.32;126188;1099;104175;-78
2021/05/22 06:45:25;;;;;;;2.83;2.40;;;;;;;17.10;71.99;100733.48;126215;1098;104267;-77
2021/05/22 06:47:54;;;;;;;7.50;2.40;;;;;;;17.24;72.03;100725.70;126268;1099;109381;-79
2021/05/22 06:50:24;;;;;;;5.13;2.40;;;;;;;17.40;71.62;100732.06;126232;1099;104188;-77
2021/05/22 06:52:53;;;;;;;4.03;2.00;;;;;;;17.58;71.62;100734.92;126242;1099;104172;-77
2021/05/22 06:55:22;;;;;;;3.53;2.00;;;;;;;17.74;71.49;100737.74;126186;1099;103966;-78
2021/05/22 06:57:52;;;;;;;5.67;2.40;;;;;;;17.87;71.48;100737.00;126210;1096;104162;-78
2021/05/22 07:00:21;;;;;;;3.10;2.10;;;;;;;18.01;71.17;100733.59;126255;1099;104191;-78
2021/05/22 07:02:51;;;;;;;4.53;2.03;;;;;;;18.17;70.64;100738.18;126208;1099;104140;-78
2021/05/22 07:05:21;;;;;;;4.23;2.10;;;;;;;18.35;70.60;100739.20;126280;1099;104226;-78
2021/05/22 07:07:51;;;;;;;5.43;2.30;;;;;;;18.46;70.56;100737.50;126260;1099;104370;-77
2021/05/22 07:10:20;;;;;;;7.30;2.20;;;;;;;18.58;70.13;100739.36;126310;1099;104150;-79
2021/05/22 07:12:49;;;;;;;7.60;2.57;;;;;;;18.73;70.07;100738.55;126274;1099;104607;-78
2021/05/22 07:15:21;;;;;;;5.75;2.10;;;;;;;18.87;69.44;100731.60;126243;1099;104268;-78
2021/05/22 07:17:55;;;;;;;3.43;2.27;;;;;;;19.02;69.92;100736.97;126182;1098;104136;-79
2021/05/22 07:20:24;;;;;;;3.80;2.10;;;;;;;19.18;69.59;100723.74;126132;1099;104566;-78
2021/05/22 07:22:55;;;;;;;2.40;2.20;;;;;;;19.32;68.84;100729.12;126236;1099;104624;-79
2021/05/22 07:25:25;;;;;;;4.37;1.73;;;;;;;19.38;67.24;100724.73;126145;1099;104210;-79
2021/05/22 07:27:55;;;;;;;4.30;2.07;;;;;;;19.50;67.83;100722.97;126171;1099;104139;-78
2021/05/22 07:30:28;;;;;;;3.83;1.90;;;;;;;19.64;67.21;100721.22;126285;1099;104188;-78
2021/05/22 07:32:57;;;;;;;5.80;2.07;;;;;;;19.76;67.51;100715.05;126269;1098;104309;-78
2021/05/22 07:35:29;;;;;;;3.45;2.30;;;;;;;19.90;67.29;100715.09;126244;1099;104270;-78
2021/05/22 07:37:59;;;;;;;5.97;2.13;;;;;;;20.05;67.54;100715.08;126236;1099;104315;-78
2021/05/22 07:40:39;;;;;;;4.45;2.20;;;;;;;20.17;66.20;100715.98;126328;1099;104152;-78
2021/05/22 07:43:10;;;;;;;4.50;1.80;;;;;;;20.27;66.76;100712.41;126230;1098;104130;-78
2021/05/22 07:45:42;;;;;;;2.23;1.73;;;;;;;20.36;66.78;100717.73;126223;1098;104265;-78
2021/05/22 07:48:12;;;;;;;8.43;1.90;;;;;;;20.50;66.50;100717.71;126262;1099;104143;-78
2021/05/22 07:50:44;;;;;;;6.60;2.13;;;;;;;20.55;65.43;100723.03;126292;1099;104143;-78
2021/05/22 07:53:13;;;;;;;4.67;2.00;;;;;;;20.64;64.66;100717.69;126283;1098;104240;-78
2021/05/22 07:55:43;;;;;;;4.63;1.87;;;;;;;20.74;65.50;100711.48;126217;1099;104262;-78
2021/05/22 07:58:15;;;;;;;3.27;1.90;;;;;;;20.91;65.42;100708.77;126157;1099;104334;-78
2021/05/22 08:00:48;;;;;;;5.90;2.10;;;;;;;21.08;64.97;100699.80;126265;1099;104370;-79
2021/05/22 08:03:17;;;;;;;4.07;1.80;;;;;;;21.19;63.93;100696.20;126145;1099;104194;-77
2021/05/22 08:05:48;;;;;;;2.67;1.87;;;;;;;21.32;64.22;100698.80;126183;1099;104217;-77
2021/05/22 08:08:17;;;;;;;3.47;2.03;;;;;;;21.36;63.82;100693.44;125987;1099;104261;-78
2021/05/22 08:10:46;;;;;;;5.20;2.07;;;;;;;21.44;63.39;100693.39;126081;1099;104325;-77
2021/05/22 08:13:15;;;;;;;3.13;1.83;;;;;;;21.52;63.88;100691.59;126094;1098;104140;-76
2021/05/22 08:15:47;;;;;;;5.43;1.83;;;;;;;21.64;62.31;100697.73;126182;1099;104357;-78
2021/05/22 08:18:16;;;;;;;4.93;1.87;;;;;;;21.73;62.98;100690.54;126212;1097;104261;-77
2021/05/22 08:20:46;;;;;;;1.97;1.63;;;;;;;21.82;62.16;100691.39;126237;1099;104153;-77
2021/05/22 08:23:15;;;;;;;2.53;1.83;;;;;;;21.95;61.60;100693.05;126225;1099;104274;-78
2021/05/22 08:25:45;;;;;;;3.87;1.67;;;;;;;22.04;61.54;100692.09;126249;1099;104149;-79
2021/05/22 08:28:21;;;;;;;1.60;1.50;;;;;;;22.14;61.00;100698.23;126150;1099;104155;-77
2021/05/22 08:30:51;;;;;;;2.20;2.00;;;;;;;22.23;60.04;100690.14;126253;1099;104265;-79
2021/05/22 08:33:20;;;;;;;3.20;2.10;;;;;;;22.36;59.14;100688.27;126258;1099;104609;-78
2021/05/22 08:35:49;;;;;;;2.80;1.83;;;;;;;22.44;59.63;100691.77;126222;1099;104145;-77
2021/05/22 08:38:18;;;;;;;2.67;1.73;;;;;;;22.51;58.94;100690.78;126248;1098;104130;-78
2021/05/22 08:40:48;;;;;;;6.37;1.90;;;;;;;22.54;59.25;100688.08;126209;1099;104182;-78
2021/05/22 08:43:17;;;;;;;2.67;1.67;;;;;;;22.61;58.23;100683.56;126268;1099;104162;-78
2021/05/22 08:45:46;;;;;;;1.93;1.70;;;;;;;22.64;59.35;100686.20;126293;1099;104169;-78
2021/05/22 08:48:16;;;;;;;4.00;1.50;;;;;;;22.69;59.25;100686.12;126184;1099;104390;-78
2021/05/22 08:50:49;;;;;;;2.70;1.80;;;;;;;22.74;59.26;100681.63;126305;1099;104114;-78
2021/05/22 08:53:22;;;;;;;2.73;1.80;;;;;;;22.85;59.15;100666.33;126251;1099;104175;-77
2021/05/22 08:55:51;;;;;;;4.60;1.70;;;;;;;22.95;58.33;100668.00;126337;1099;104210;-77
2021/05/22 08:58:26;;;;;;;4.93;1.77;;;;;;;23.04;57.37;100668.77;126279;1099;103412;-79
2021/05/22 09:00:57;;;;;;;4.90;2.10;;;;;;;23.09;57.19;100670.53;126209;1099;104178;-78
2021/05/22 09:03:26;;;;;;;3.40;1.70;;;;;;;23.15;56.97;100669.55;126247;1099;104654;-78
2021/05/22 09:05:56;;;;;;;3.00;2.10;;;;;;;23.20;57.30;100672.16;126258;1099;104166;-77
2021/05/22 09:08:26;;;;;;;5.53;1.80;;;;;;;23.35;57.29;100671.07;126245;1099;104169;-77
2021/05/22 09:14:05;;;;;;;2.17;1.60;;;;;;;23.47;56.39;100668.22;126242;1099;104232;-77
2021/05/22 09:16:36;;;;;;;2.60;1.70;;;;;;;23.38;56.47;100671.90;126285;1099;104242;-77
2021/05/22 09:19:06;;;;;;;2.97;1.77;;;;;;;23.33;56.07;100661.26;125225;1099;104152;-77
2021/05/22 09:21:37;;;;;;;4.70;1.90;;;;;;;23.36;55.43;100663.02;125277;1099;104373;-79
2021/05/22 09:24:08;;;;;;;5.23;1.73;;;;;;;23.40;55.61;100655.81;125262;1102;104218;-77
2021/05/22 09:26:39;;;;;;;3.70;1.73;;;;;;;23.42;54.48;100657.57;125211;1099;104296;-78
2021/05/22 09:29:24;;;;;;;2.13;1.80;;;;;;;23.52;54.28;100658.31;125192;1099;104225;-77
2021/05/22 09:31:54;;;;;;;1.60;1.50;;;;;;;23.58;53.21;100643.95;125252;1102;104187;-77
2021/05/22 09:34:31;;;;;;;2.80;1.33;;;;;;;23.53;53.25;100645.80;125248;1099;104152;-78
2021/05/22 09:37:12;;;;;;;3.17;1.57;;;;;;;23.51;53.86;100644.05;125234;1102;105161;-78
2021/05/22 09:39:53;;;;;;;2.67;1.77;;;;;;;23.46;53.87;100639.66;125202;1099;104649;-77
2021/05/22 09:42:31;;;;;;;2.67;1.83;;;;;;;23.40;53.33;100634.39;125203;1099;104316;-77
2021/05/22 09:45:01;;;;;;;4.37;1.50;;;;;;;23.41;53.04;100634.38;125212;1102;104155;-78
2021/05/22 09:47:32;;;;;;;4.10;1.80;;;;;;;23.45;53.32;100635.20;125206;1099;104270;-77
2021/05/22 09:50:01;;;;;;;2.77;1.90;;;;;;;23.47;52.73;100631.59;125370;1101;104715;-77
2021/05/22 09:52:38;;;;;;;4.97;1.60;;;;;;;23.55;52.62;100631.48;126263;1097;104149;-77
2021/05/22 09:55:11;;;;;;;2.93;1.47;;;;;;;23.54;52.27;100634.18;126311;1099;104226;-77
2021/05/22 09:57:45;;;;;;;2.10;1.60;;;;;;;23.59;52.34;100627.86;126250;1099;104166;-77
2021/05/22 10:00:16;;;;;;;;;;;;;;;23.54;51.14;100627.02;126285;1099;104169;-78
2021/05/22 10:02:48;;;;;;;2.87;1.70;;;;;;;23.50;51.48;100614.61;126307;1099;104149;-77
2021/05/22 10:05:20;;;;;;;2.67;2.00;;;;;;;23.59;51.21;100619.82;126260;1099;104169;-77
2021/05/22 10:07:51;;;;;;;1.60;1.50;;;;;;;23.66;51.27;100613.43;126239;1099;104137;-77
2021/05/22 10:10:22;;;;;;;3.30;1.70;;;;;;;23.71;50.83;100609.80;126259;1099;104319;-77
2021/05/22 10:12:53;;;;;;;2.13;1.60;;;;;;;23.72;50.37;100606.20;126222;1099;104265;-76
2021/05/22 10:15:22;;;;;;;2.83;1.60;;;;;;;23.67;50.26;100607.17;126046;1096;104217;-76
2021/05/22 10:17:51;;;;;;;2.83;1.67;;;;;;;23.69;50.56;100612.51;126046;1099;104567;-76
2021/05/22 10:20:21;;;;;;;2.40;1.57;;;;;;;23.71;50.11;100609.80;125978;1099;104300;-76
2021/05/22 10:22:53;;;;;;;3.50;1.80;;;;;;;23.79;50.18;100597.16;126083;1099;105315;-77
2021/05/22 10:25:23;;;;;;;2.60;1.60;;;;;;;23.79;49.59;100597.16;126092;1099;104188;-77
2021/05/22 10:27:52;;;;;;;4.53;1.87;;;;;;;23.83;48.80;100582.80;126063;1099;104294;-77
2021/05/22 10:30:23;;;;;;;5.33;2.00;;;;;;;23.67;49.05;100592.91;125372;1099;104172;-78
2021/05/22 10:33:00;;;;;;;5.00;1.80;;;;;;;23.42;48.71;100589.72;126194;1099;104762;-78
2021/05/22 10:35:38;;;;;;;2.37;1.60;;;;;;;23.40;48.62;100588.88;125255;1102;104152;-77
2021/05/22 10:38:10;;;;;;;3.83;1.90;;;;;;;23.53;48.79;100584.20;125171;1102;104220;-77
2021/05/22 10:40:51;;;;;;;2.47;1.80;;;;;;;23.63;48.52;100585.83;125112;1102;104307;-76
2021/05/22 10:43:40;;;;;;;3.40;1.97;;;;;;;23.67;48.69;100577.71;125317;1099;104348;-76
2021/05/22 10:46:10;;;;;;;2.73;1.70;;;;;;;23.65;48.50;100574.19;125178;1102;104149;-77
2021/05/22 10:48:52;;;;;;;2.53;1.33;;;;;;;23.61;48.20;100563.55;125188;1099;104159;-76
2021/05/22 10:51:32;;;;;;;3.37;2.07;;;;;;;23.57;48.08;100573.41;125130;1100;104326;-77
2021/05/22 10:54:06;;;;;;;3.90;1.65;;;;;;;23.64;47.42;100579.57;125240;1102;104630;-78
2021/05/22 10:56:55;;;;;;;2.93;1.50;;;;;;;23.61;47.11;100580.49;125198;1102;104181;-78
2021/05/22 10:59:24;;;;;;;2.47;1.60;;;;;;;23.60;47.54;100559.97;125206;1102;104185;-77
2021/05/22 11:01:53;;;;;;;2.07;1.60;;;;;;;23.64;45.60;100575.08;125188;1102;104181;-78
2021/05/22 11:04:36;;;;;;;3.83;1.80;;;;;;;23.66;46.34;100565.22;125235;1099;104315;-77
2021/05/22 11:07:20;;;;;;;3.30;2.10;;;;;;;23.68;46.47;100559.83;125700;1099;104146;-77
2021/05/22 11:09:55;;;;;;;5.65;1.75;;;;;;;23.75;46.29;100558.83;126150;1099;104305;-76
2021/05/22 11:12:42;;;;;;;3.53;1.80;;;;;;;23.81;45.75;100563.17;126192;1099;105296;-78
2021/05/22 11:15:40;;;;;;;3.07;1.70;;;;;;;23.81;45.80;100553.36;126190;1099;104235;-77
2021/05/22 11:18:10;;;;;;;1.90;1.40;;;;;;;23.74;46.04;100553.49;126264;1099;104146;-77
2021/05/22 11:20:42;;;;;;;4.70;1.70;;;;;;;23.71;45.28;100556.23;126223;1099;104147;-77
2021/05/22 11:23:12;;;;;;;4.47;2.13;;;;;;;23.68;45.56;100552.70;126114;1099;107412;-77
2021/05/22 11:25:53;;;;;;;2.43;1.80;;;;;;;23.73;45.84;100546.36;126266;1099;104158;-76